createdAt,value
2023-04-15T00:00:58.893Z,6.40
2023-04-15T00:03:25.820Z,9.00
2023-04-15T00:05:52.715Z,9.43
2023-04-15T00:08:20.530Z,8.10
2023-04-15T00:10:47.883Z,7.13
2023-04-15T00:13:15.254Z,7.50
2023-04-15T00:15:42.656Z,8.20
2023-04-15T00:18:09.731Z,8.80
2023-04-15T00:20:37.117Z,6.77
2023-04-15T00:23:04.422Z,7.07
2023-04-15T00:25:31.471Z,9.57
2023-04-15T00:27:58.772Z,6.00
2023-04-15T00:30:26.518Z,6.20
2023-04-15T00:32:53.534Z,8.43
2023-04-15T00:35:20.677Z,9.80
2023-04-15T00:37:47.405Z,8.00
2023-04-15T00:40:17.269Z,7.83
2023-04-15T00:42:44.550Z,6.77
2023-04-15T00:45:11.816Z,7.43
2023-04-15T00:47:41.732Z,6.47
2023-04-15T00:50:09.297Z,6.10
2023-04-15T00:52:36.353Z,7.70
2023-04-15T00:55:04.718Z,8.00
2023-04-15T00:57:31.904Z,13.37
2023-04-15T00:59:59.173Z,7.70
2023-04-15T01:02:27.169Z,8.83
2023-04-15T01:04:54.016Z,6.87
2023-04-15T01:07:20.707Z,8.47
2023-04-15T01:09:48.036Z,6.73
2023-04-15T01:12:17.045Z,8.23
2023-04-15T01:14:43.979Z,7.87
2023-04-15T01:17:10.973Z,6.40
2023-04-15T01:19:38.185Z,7.93
2023-04-15T01:22:05.642Z,9.23
2023-04-15T01:24:34.031Z,8.03
2023-04-15T01:27:01.152Z,8.30
2023-04-15T01:29:27.996Z,7.00
2023-04-15T01:31:56.795Z,8.40
2023-04-15T01:34:23.749Z,6.53
2023-04-15T01:36:50.441Z,13.80
2023-04-15T01:39:17.218Z,10.50
2023-04-15T01:41:44.133Z,7.03
2023-04-15T01:44:11.041Z,7.87
2023-04-15T01:46:38.185Z,9.90
2023-04-15T01:49:05.354Z,12.17
2023-04-15T01:51:32.107Z,8.87
2023-04-15T01:53:59.244Z,10.07
2023-04-15T01:56:26.641Z,8.93
2023-04-15T01:58:53.986Z,8.53
2023-04-15T02:01:22.109Z,10.23
2023-04-15T02:03:49.044Z,10.30
2023-04-15T02:06:15.939Z,8.27
2023-04-15T02:08:43.274Z,8.57
2023-04-15T02:11:10.125Z,8.50
2023-04-15T02:13:36.938Z,8.00
2023-04-15T02:16:04.220Z,11.20
2023-04-15T02:18:31.022Z,7.77
2023-04-15T02:20:58.658Z,7.50
2023-04-15T02:23:25.766Z,10.63
2023-04-15T02:25:53.529Z,9.00
2023-04-15T02:28:21.468Z,7.97
2023-04-15T02:30:52.681Z,9.20
2023-04-15T02:33:20.265Z,7.90
2023-04-15T02:35:47.278Z,8.03
2023-04-15T02:38:14.792Z,7.73
2023-04-15T02:40:41.535Z,10.07
2023-04-15T02:43:08.245Z,9.57
2023-04-15T02:45:35.537Z,6.97
2023-04-15T02:48:06.251Z,9.90
2023-04-15T02:50:33.403Z,8.23
2023-04-15T02:53:01.566Z,8.23
2023-04-15T02:55:29.141Z,6.07
2023-04-15T02:57:56.296Z,8.87
2023-04-15T03:00:25.265Z,7.90
2023-04-15T03:02:56.359Z,9.00
2023-04-15T03:05:26.464Z,9.57
2023-04-15T03:07:53.684Z,10.10
2023-04-15T03:10:21.229Z,10.43
2023-04-15T03:12:48.088Z,8.83
2023-04-15T03:15:15.590Z,9.47
2023-04-15T03:17:42.749Z,8.10
2023-04-15T03:20:10.353Z,7.53
2023-04-15T03:22:37.512Z,8.57
2023-04-15T03:25:04.461Z,9.43
2023-04-15T03:27:31.971Z,7.87
2023-04-15T03:29:58.636Z,11.03
2023-04-15T03:32:25.327Z,11.33
2023-04-15T03:34:52.437Z,10.80
2023-04-15T03:37:19.526Z,11.53
2023-04-15T03:39:46.401Z,10.37
2023-04-15T03:42:13.082Z,12.93
2023-04-15T03:44:40.191Z,8.60
2023-04-15T03:47:07.526Z,8.60
2023-04-15T03:49:34.658Z,10.17
2023-04-15T03:52:01.374Z,11.57
2023-04-15T03:54:28.115Z,9.87
2023-04-15T03:56:55.906Z,11.43
2023-04-15T03:59:22.580Z,9.13
2023-04-15T04:01:49.545Z,7.03
2023-04-15T04:04:16.557Z,8.73
2023-04-15T04:06:43.690Z,10.33
2023-04-15T04:09:10.520Z,8.43
2023-04-15T04:11:37.723Z,8.13
2023-04-15T04:14:04.383Z,9.57
2023-04-15T04:16:31.313Z,11.13
2023-04-15T04:18:57.980Z,8.73
2023-04-15T04:21:25.096Z,8.10
2023-04-15T04:23:51.779Z,12.03
2023-04-15T04:26:18.491Z,8.60
2023-04-15T04:28:45.427Z,7.60
2023-04-15T04:31:12.525Z,8.33
2023-04-15T04:33:39.291Z,7.20
2023-04-15T04:36:06.407Z,9.10
2023-04-15T04:38:33.058Z,7.40
2023-04-15T04:41:00.395Z,8.43
2023-04-15T04:43:27.523Z,6.33
2023-04-15T04:45:54.348Z,11.07
2023-04-15T04:48:21.639Z,8.97
2023-04-15T04:50:48.824Z,8.70
2023-04-15T04:53:16.076Z,9.20
2023-04-15T04:55:42.755Z,10.73
2023-04-15T04:58:09.885Z,11.83
2023-04-15T05:00:37.897Z,7.97
2023-04-15T05:03:04.992Z,9.70
2023-04-15T05:05:32.195Z,10.53
2023-04-15T05:07:59.243Z,14.17
2023-04-15T05:10:26.340Z,8.43
2023-04-15T05:12:53.009Z,8.60
2023-04-15T05:15:20.371Z,10.17
2023-04-15T05:17:47.130Z,10.10
2023-04-15T05:20:14.381Z,9.33
2023-04-15T05:22:41.538Z,10.53
2023-04-15T05:25:09.317Z,9.07
2023-04-15T05:27:36.792Z,10.60
2023-04-15T05:30:03.858Z,11.80
2023-04-15T05:32:30.561Z,9.77
2023-04-15T05:34:57.659Z,11.77
2023-04-15T05:37:24.350Z,9.37
2023-04-15T05:39:51.132Z,9.17
2023-04-15T05:42:17.934Z,10.40
2023-04-15T05:44:44.647Z,9.50
2023-04-15T05:47:11.859Z,11.50
2023-04-15T05:49:38.928Z,8.53
2023-04-15T05:52:06.885Z,9.47
2023-04-15T05:54:33.600Z,10.63
2023-04-15T05:57:00.921Z,8.97
2023-04-15T05:59:28.497Z,8.13
2023-04-15T06:01:55.407Z,8.13
2023-04-15T06:04:22.955Z,7.30
2023-04-15T06:06:49.725Z,10.03
2023-04-15T06:09:16.938Z,8.97
2023-04-15T06:11:44.036Z,8.37
2023-04-15T06:14:11.189Z,10.83
2023-04-15T06:16:38.359Z,8.70
2023-04-15T06:19:05.516Z,7.43
2023-04-15T06:21:32.301Z,8.23
2023-04-15T06:24:03.739Z,7.83
2023-04-15T06:26:31.219Z,7.57
2023-04-15T06:28:57.936Z,6.80
2023-04-15T06:31:25.036Z,7.33
2023-04-15T06:33:51.749Z,9.20
2023-04-15T06:36:18.499Z,7.97
2023-04-15T06:38:45.448Z,5.53
2023-04-15T06:41:12.618Z,7.93
2023-04-15T06:43:39.904Z,11.10
2023-04-15T06:46:07.070Z,7.87
2023-04-15T06:48:34.403Z,9.40
2023-04-15T06:51:01.769Z,8.17
2023-04-15T06:53:28.495Z,8.07
2023-04-15T06:55:55.581Z,7.57
2023-04-15T06:58:22.889Z,7.70
2023-04-15T07:00:49.796Z,9.37
2023-04-15T07:03:16.937Z,8.97
2023-04-15T07:05:43.637Z,11.70
2023-04-15T07:08:10.437Z,7.23
2023-04-15T07:10:38.109Z,7.47
2023-04-15T07:13:05.863Z,9.70
2023-04-15T07:15:32.969Z,9.43
2023-04-15T07:18:00.159Z,7.33
2023-04-15T07:20:27.299Z,7.40
2023-04-15T07:22:54.833Z,7.67
2023-04-15T07:25:22.242Z,7.40
2023-04-15T07:27:48.938Z,7.93
2023-04-15T07:30:16.072Z,9.27
2023-04-15T07:32:43.133Z,7.17
2023-04-15T07:35:10.727Z,7.43
2023-04-15T07:37:37.948Z,7.50
2023-04-15T07:40:06.760Z,6.43
2023-04-15T07:42:35.030Z,5.27
2023-04-15T07:45:01.733Z,6.17
2023-04-15T07:47:28.917Z,9.27
2023-04-15T07:49:56.063Z,6.50
2023-04-15T07:52:23.199Z,5.57
2023-04-15T07:54:49.837Z,4.63
2023-04-15T07:57:17.829Z,7.13
2023-04-15T07:59:44.511Z,4.73
2023-04-15T08:02:12.011Z,3.87
2023-04-15T08:04:39.482Z,6.40
2023-04-15T08:07:06.356Z,4.67
2023-04-15T08:09:33.038Z,4.67
2023-04-15T08:12:01.026Z,3.77
2023-04-15T08:14:28.118Z,3.53
2023-04-15T08:16:55.218Z,6.53
2023-04-15T08:19:22.934Z,5.17
2023-04-15T08:21:49.718Z,3.00
2023-04-15T08:24:16.417Z,3.33
2023-04-15T08:26:43.472Z,2.60
2023-04-15T08:29:10.583Z,2.97
2023-04-15T08:31:37.750Z,3.37
2023-04-15T08:34:04.956Z,5.30
2023-04-15T08:36:32.491Z,2.73
2023-04-15T08:39:01.451Z,4.87
2023-04-15T08:41:30.073Z,2.90
2023-04-15T08:44:04.131Z,2.20
2023-04-15T08:46:34.783Z,2.37
2023-04-15T08:49:04.544Z,3.23
2023-04-15T08:51:32.669Z,3.67
2023-04-15T08:54:00.463Z,2.47
2023-04-15T08:56:30.886Z,2.23
2023-04-15T08:58:58.813Z,1.87
2023-04-15T09:01:26.458Z,2.83
2023-04-15T09:03:57.096Z,2.57
2023-04-15T09:06:24.480Z,3.27
2023-04-15T09:08:52.020Z,5.87
2023-04-15T09:11:20.253Z,3.47
2023-04-15T09:13:47.085Z,4.23
2023-04-15T09:16:14.335Z,4.43
2023-04-15T09:18:41.564Z,5.00
2023-04-15T09:21:14.080Z,2.60
2023-04-15T09:23:55.053Z,2.83
2023-04-15T09:26:34.165Z,4.40
2023-04-15T09:29:09.217Z,3.33
2023-04-15T09:31:37.095Z,5.27
2023-04-15T09:34:04.428Z,4.23
2023-04-15T09:36:52.487Z,4.07
2023-04-15T09:39:19.600Z,5.73
2023-04-15T09:41:46.693Z,3.93
2023-04-15T09:44:24.143Z,14.97
2023-04-15T09:46:50.882Z,2.33
2023-04-15T09:49:18.026Z,2.57
2023-04-15T09:51:54.122Z,2.97
2023-04-15T09:54:36.650Z,4.37
2023-04-15T09:57:08.471Z,3.53
2023-04-15T09:59:35.657Z,7.20
2023-04-15T10:02:06.365Z,3.30
2023-04-15T10:04:37.194Z,3.80
2023-04-15T10:07:05.316Z,5.63
2023-04-15T10:09:34.101Z,4.27
2023-04-15T10:12:01.288Z,3.03
2023-04-15T10:14:32.397Z,3.07
2023-04-15T10:17:02.637Z,5.23
2023-04-15T10:19:33.263Z,3.80
2023-04-15T10:22:00.392Z,4.07
2023-04-15T10:24:28.248Z,3.47
2023-04-15T10:26:55.617Z,4.60
2023-04-15T10:29:24.140Z,6.07
2023-04-15T10:31:51.395Z,6.53
2023-04-15T10:34:19.196Z,4.30
2023-04-15T10:36:47.482Z,4.20
2023-04-15T10:39:38.804Z,3.77
2023-04-15T10:42:19.518Z,3.50
2023-04-15T10:44:51.857Z,4.60
2023-04-15T10:47:20.447Z,3.77
2023-04-15T10:49:59.078Z,4.63
2023-04-15T10:52:27.617Z,4.33
2023-04-15T10:55:19.391Z,3.77
2023-04-15T10:57:46.145Z,3.83
2023-04-15T11:00:13.463Z,3.13
2023-04-15T11:02:47.186Z,3.50
2023-04-15T11:05:15.481Z,3.43
2023-04-15T11:07:43.433Z,3.00
2023-04-15T11:10:36.208Z,3.17
2023-04-15T11:13:17.028Z,3.57
2023-04-15T11:15:48.227Z,3.70
2023-04-15T11:18:23.135Z,3.47
2023-04-15T11:21:07.254Z,3.70
2023-04-15T11:23:47.313Z,3.70
2023-04-15T11:26:15.330Z,3.47
2023-04-15T11:28:44.869Z,5.23
2023-04-15T11:31:16.341Z,3.70
2023-04-15T11:34:02.829Z,3.87
2023-04-15T11:36:34.413Z,4.33
2023-04-15T11:39:01.110Z,3.77
2023-04-15T11:41:27.842Z,3.30
2023-04-15T11:43:54.912Z,4.00
2023-04-15T11:46:28.506Z,3.40
2023-04-15T11:48:55.246Z,2.57
2023-04-15T11:51:22.705Z,3.83
2023-04-15T11:53:51.126Z,3.30
2023-04-15T11:56:18.989Z,3.23
2023-04-15T11:58:46.657Z,2.93
2023-04-15T12:01:13.595Z,3.10
2023-04-15T12:04:01.206Z,4.23
2023-04-15T12:06:34.327Z,3.50
2023-04-15T12:09:07.437Z,4.00
2023-04-15T12:11:49.596Z,4.07
2023-04-15T12:14:34.556Z,3.80
2023-04-15T12:17:06.639Z,4.23
2023-04-15T12:19:38.749Z,4.30
2023-04-15T12:22:08.842Z,4.80
2023-04-15T12:24:37.223Z,5.03
2023-04-15T12:27:09.118Z,6.17
2023-04-15T12:29:38.585Z,4.67
2023-04-15T12:32:07.683Z,4.70
2023-04-15T12:34:36.099Z,5.03
2023-04-15T12:37:04.816Z,5.00
2023-04-15T12:39:35.540Z,5.70
2023-04-15T12:42:05.314Z,4.77
2023-04-15T12:44:33.180Z,5.60
2023-04-15T12:47:00.407Z,5.70
2023-04-15T12:49:27.466Z,7.57
2023-04-15T12:51:57.097Z,6.47
2023-04-15T12:54:24.040Z,5.57
2023-04-15T12:56:51.288Z,5.70
2023-04-15T12:59:18.906Z,5.43
2023-04-15T13:01:47.566Z,6.57
2023-04-15T13:04:15.744Z,6.20
2023-04-15T13:06:43.349Z,6.50
2023-04-15T13:09:10.027Z,7.37
2023-04-15T13:11:37.054Z,7.70
2023-04-15T13:14:08.899Z,8.20
2023-04-15T13:16:36.034Z,8.00
2023-04-15T13:19:03.974Z,7.07
2023-04-15T13:21:35.286Z,7.13
2023-04-15T13:24:03.712Z,7.60
2023-04-15T13:26:31.592Z,7.60
2023-04-15T13:28:58.301Z,9.33
2023-04-15T13:31:25.137Z,8.33
2023-04-15T13:33:51.939Z,11.80
2023-04-15T13:36:18.678Z,9.07
2023-04-15T13:38:45.683Z,9.27
2023-04-15T13:41:12.378Z,9.60
2023-04-15T13:43:39.040Z,9.57
2023-04-15T13:46:06.191Z,10.00
2023-04-15T13:48:32.996Z,7.43
2023-04-15T13:50:59.724Z,6.57
2023-04-15T13:53:38.280Z,7.30
2023-04-15T13:56:07.332Z,9.33
2023-04-15T13:58:34.259Z,9.03
2023-04-15T14:01:02.579Z,8.37
2023-04-15T14:03:31.019Z,6.70
2023-04-15T14:05:58.428Z,7.13
2023-04-15T14:08:25.677Z,7.30
2023-04-15T14:10:52.369Z,7.37
2023-04-15T14:13:19.627Z,7.00
2023-04-15T14:15:46.902Z,6.57
2023-04-15T14:18:13.735Z,7.40
2023-04-15T14:20:40.529Z,6.83
2023-04-15T14:23:07.264Z,7.53
2023-04-15T14:25:34.297Z,8.33
2023-04-15T14:28:02.110Z,7.03
2023-04-15T14:30:29.002Z,8.47
2023-04-15T14:32:55.893Z,8.70
2023-04-15T14:35:24.497Z,7.30
2023-04-15T14:37:51.270Z,10.10
2023-04-15T14:40:18.038Z,6.37
2023-04-15T14:42:44.763Z,7.77
2023-04-15T14:45:11.768Z,5.63
2023-04-15T14:47:38.670Z,5.33
2023-04-15T14:50:05.878Z,5.73
2023-04-15T14:52:38.960Z,4.37
2023-04-15T14:55:07.654Z,5.13
2023-04-15T14:57:34.434Z,5.10
2023-04-15T15:00:01.208Z,4.90
2023-04-15T15:02:38.393Z,5.67
2023-04-15T15:05:06.693Z,5.47
2023-04-15T15:07:33.543Z,5.73
2023-04-15T15:10:00.271Z,6.27
2023-04-15T15:12:26.981Z,4.87
2023-04-15T15:14:56.014Z,5.30
2023-04-15T15:17:22.839Z,5.80
2023-04-15T15:19:49.595Z,7.90
2023-04-15T15:22:16.538Z,8.63
2023-04-15T15:24:43.262Z,11.43
2023-04-15T15:27:10.316Z,9.93
2023-04-15T15:29:38.183Z,12.53
2023-04-15T15:32:05.131Z,10.90
2023-04-15T15:34:31.834Z,8.97
2023-04-15T15:36:58.698Z,9.43
2023-04-15T15:39:25.520Z,10.93
2023-04-15T15:41:52.316Z,10.27
2023-04-15T15:44:19.034Z,11.17
2023-04-15T15:46:48.441Z,12.60
2023-04-15T15:49:15.453Z,14.87
2023-04-15T15:51:42.189Z,12.07
2023-04-15T15:54:08.919Z,11.77
2023-04-15T15:56:38.432Z,10.80
2023-04-15T15:59:05.720Z,9.17
2023-04-15T16:01:32.621Z,10.73
2023-04-15T16:03:59.512Z,13.30
2023-04-15T16:06:27.069Z,9.73
2023-04-15T16:08:53.779Z,12.03
2023-04-15T16:11:20.855Z,13.80
2023-04-15T16:13:47.567Z,14.43
2023-04-15T16:16:14.380Z,18.60
2023-04-15T16:18:41.194Z,14.77
2023-04-15T16:21:08.514Z,15.23
2023-04-15T16:23:36.906Z,17.40
2023-04-15T16:26:03.702Z,11.60
2023-04-15T16:28:30.506Z,13.23
2023-04-15T16:30:57.282Z,13.43
2023-04-15T16:33:24.055Z,13.60
2023-04-15T16:35:51.511Z,13.00
2023-04-15T16:38:18.217Z,7.67
2023-04-15T16:40:44.931Z,6.90
2023-04-15T16:43:11.671Z,6.57
2023-04-15T16:45:38.580Z,6.00
2023-04-15T16:48:05.732Z,6.90
2023-04-15T16:50:32.585Z,5.00
2023-04-15T16:52:59.275Z,8.97
2023-04-15T16:55:26.164Z,9.97
2023-04-15T16:58:02.184Z,7.30
2023-04-15T17:00:31.356Z,7.27
2023-04-15T17:02:59.358Z,8.73
2023-04-15T17:05:30.801Z,8.23
2023-04-15T17:07:57.945Z,7.60
2023-04-15T17:10:24.864Z,9.77
2023-04-15T17:12:52.254Z,6.10
2023-04-15T17:15:20.077Z,5.27
2023-04-15T17:17:46.814Z,5.87
2023-04-15T17:20:13.756Z,5.37
2023-04-15T17:22:40.582Z,5.23
2023-04-15T17:25:07.827Z,4.30
2023-04-15T17:27:38.667Z,6.50
2023-04-15T17:30:07.191Z,5.60
2023-04-15T17:32:34.897Z,6.70
2023-04-15T17:35:04.257Z,7.03
2023-04-15T17:37:30.912Z,6.30
2023-04-15T17:39:58.048Z,8.97
2023-04-15T17:42:24.718Z,6.33
2023-04-15T17:44:51.430Z,8.40
2023-04-15T17:47:18.302Z,8.33
2023-04-15T17:49:45.052Z,8.23
2023-04-15T17:52:11.714Z,12.60
2023-04-15T17:54:38.403Z,8.10
2023-04-15T17:57:05.227Z,13.90
2023-04-15T17:59:33.649Z,17.47
2023-04-15T18:02:00.541Z,20.23
2023-04-15T18:04:27.425Z,27.73
2023-04-15T18:06:54.188Z,21.97
2023-04-15T18:09:20.966Z,18.50
2023-04-15T18:11:48.896Z,19.50
2023-04-15T18:14:30.683Z,15.17
2023-04-15T18:17:01.193Z,15.93
2023-04-15T18:19:28.112Z,12.30
2023-04-15T18:21:54.877Z,9.93
2023-04-15T18:24:22.414Z,14.10
2023-04-15T18:26:49.387Z,17.67
2023-04-15T18:29:16.628Z,11.50
2023-04-15T18:31:43.611Z,12.43
2023-04-15T18:34:10.722Z,12.83
2023-04-15T18:36:37.573Z,14.03
2023-04-15T18:39:04.942Z,17.17
2023-04-15T18:41:32.005Z,16.80
2023-04-15T18:43:58.646Z,12.60
2023-04-15T18:46:25.364Z,12.67
2023-04-15T18:48:52.057Z,16.23
2023-04-15T18:51:18.728Z,16.03
2023-04-15T18:53:45.600Z,15.93
2023-04-15T18:56:12.304Z,16.93
2023-04-15T18:59:26.001Z,14.17
2023-04-15T19:01:26.418Z,15.33
2023-04-15T19:03:53.328Z,13.03
2023-04-15T19:06:20.136Z,16.10
2023-04-15T19:08:46.818Z,12.73
2023-04-15T19:11:13.515Z,12.10
2023-04-15T19:13:40.562Z,13.20
2023-04-15T19:16:07.362Z,13.93
2023-04-15T19:18:34.094Z,13.10
2023-04-15T19:21:00.852Z,15.83
2023-04-15T19:23:27.662Z,15.00
2023-04-15T19:25:54.356Z,12.00
2023-04-15T19:28:21.036Z,16.93
2023-04-15T19:30:47.845Z,15.63
2023-04-15T19:33:14.584Z,15.67
2023-04-15T19:35:41.405Z,18.57
2023-04-15T19:38:08.151Z,17.70
2023-04-15T19:40:34.841Z,19.20
2023-04-15T19:43:01.543Z,20.17
2023-04-15T19:45:28.349Z,20.60
2023-04-15T19:47:55.086Z,24.90
2023-04-15T19:50:25.866Z,19.43
2023-04-15T19:52:53.382Z,17.83
2023-04-15T19:55:20.872Z,17.63
2023-04-15T19:57:47.527Z,15.93
2023-04-15T20:00:14.322Z,16.93
2023-04-15T20:02:41.268Z,18.70
2023-04-15T20:05:09.975Z,17.20
2023-04-15T20:07:37.018Z,19.60
2023-04-15T20:10:08.530Z,23.07
2023-04-15T20:12:50.029Z,20.37
2023-04-15T20:15:19.422Z,25.17
2023-04-15T20:17:46.129Z,25.23
2023-04-15T20:20:12.886Z,26.70
2023-04-15T20:22:39.591Z,27.37
2023-04-15T20:25:06.760Z,21.83
2023-04-15T20:27:33.535Z,26.50
2023-04-15T20:30:00.448Z,27.33
2023-04-15T20:32:28.313Z,29.87
2023-04-15T20:34:55.212Z,26.00
2023-04-15T20:37:22.419Z,23.33
2023-04-15T20:39:49.196Z,25.57
2023-04-15T20:42:16.110Z,28.00
2023-04-15T20:44:42.767Z,25.10
2023-04-15T20:47:09.660Z,30.00
2023-04-15T20:49:37.580Z,34.33
2023-04-15T20:52:05.521Z,31.73
2023-04-15T20:54:32.447Z,33.40
2023-04-15T20:56:59.279Z,30.20
2023-04-15T20:59:26.104Z,32.80
2023-04-15T21:01:53.028Z,31.83
2023-04-15T21:04:21.880Z,32.47
2023-04-15T21:06:48.683Z,33.90
2023-04-15T21:09:15.482Z,33.87
2023-04-15T21:14:19.733Z,29.97
2023-04-15T21:16:46.548Z,30.63
2023-04-15T21:19:13.275Z,30.67
2023-04-15T21:21:39.973Z,29.27
2023-04-15T21:24:07.835Z,28.67
2023-04-15T21:26:36.030Z,31.83
2023-04-15T21:29:03.303Z,27.30
2023-04-15T21:31:30.429Z,31.30
2023-04-15T21:33:57.246Z,30.93
2023-04-15T21:36:23.889Z,30.80
2023-04-15T21:38:50.656Z,34.00
2023-04-15T21:41:17.610Z,34.17
2023-04-15T21:43:44.333Z,35.37
2023-04-15T21:46:21.964Z,36.97
2023-04-15T21:48:52.989Z,30.97
2023-04-15T21:51:19.726Z,31.27
2023-04-15T21:53:46.621Z,31.63
2023-04-15T21:56:13.336Z,32.53
2023-04-15T21:58:40.203Z,33.37
2023-04-15T22:01:06.990Z,35.83
2023-04-15T22:03:35.233Z,35.40
2023-04-15T22:06:05.179Z,36.77
2023-04-15T22:08:41.257Z,35.47
2023-04-15T22:11:22.935Z,38.73
2023-04-15T22:13:49.658Z,39.67
2023-04-15T22:16:16.558Z,39.03
2023-04-15T22:18:43.248Z,40.37
2023-04-15T22:21:09.977Z,40.20
2023-04-15T22:23:36.661Z,41.47
2023-04-15T22:26:04.793Z,42.17
2023-04-15T22:28:31.463Z,39.03
2023-04-15T22:30:58.969Z,49.83
2023-04-15T22:33:25.817Z,48.17
2023-04-15T22:35:52.507Z,44.00
2023-04-15T22:38:19.221Z,49.80
2023-04-15T22:40:46.588Z,48.07
2023-04-15T22:43:13.313Z,46.10
2023-04-15T22:45:40.031Z,42.00
2023-04-15T22:48:06.757Z,46.13
2023-04-15T22:50:33.461Z,53.20
2023-04-15T22:53:00.210Z,56.40
2023-04-15T22:55:26.887Z,52.00
2023-04-15T22:57:53.615Z,52.10
2023-04-15T23:00:20.423Z,52.17
2023-04-15T23:02:47.163Z,56.57
2023-04-15T23:05:13.986Z,55.93
2023-04-15T23:07:40.652Z,52.97
2023-04-15T23:10:08.031Z,53.23
2023-04-15T23:12:34.967Z,53.30
2023-04-15T23:15:03.209Z,46.73
2023-04-15T23:17:29.934Z,52.20
2023-04-15T23:19:56.636Z,55.30
2023-04-15T23:22:23.411Z,55.50
2023-04-15T23:24:50.059Z,58.00
2023-04-15T23:27:18.905Z,51.83
2023-04-15T23:29:46.028Z,60.20
2023-04-15T23:32:12.699Z,61.70
2023-04-15T23:34:39.393Z,58.97
2023-04-15T23:37:06.492Z,58.33
2023-04-15T23:39:33.149Z,60.53
2023-04-15T23:41:59.898Z,58.10
2023-04-15T23:44:27.009Z,57.70
2023-04-15T23:46:53.715Z,52.73
2023-04-15T23:49:20.670Z,56.20
2023-04-15T23:51:47.512Z,54.27
2023-04-15T23:54:14.928Z,55.33
2023-04-15T23:56:41.630Z,51.77
2023-04-15T23:59:08.618Z,53.33
